Flugplatz Schwabmünchen

Für EDNS sind keine METAR/TAF Berichte vorhanden.
Es werden die Flugwettermeldungen vom Flugplatz Lechfeld Airport in 11 km Entfernung angezeigt.

Bericht für ETSL

vom 25.01. um 23:20 UTC

Wind 3 kt aus 200°

Sichtweite 7000 m

Temperatur 1.0°C

Taupunkt 0.0°C

Luftfeuchtigkeit 93%

Luftdruck 1019 hPa

ETSL 252320Z AUTO 20003KT 7000 // ////// 01/M00 Q1019 ///
Keine Prognose (TAF) verfügbar.
Impressum